Time;durP1;ratioP1;P1;durP2;ratioP2;P2;SDS_P1;SDS_P2;PMS_P1;PMS_P2;Temp;Humidity;BMP_temperature;BMP_pressure;BME280_temperature;BME280_humidity;BME280_pressure;Samples;Min_cycle;Max_cycle;Signal;HPM_P1;HPM_P2
2022/06/27 00:00:48;;;;;;;4.38;2.00;;;;;;;23.32;52.96;101472.56;5034012;28;20018;-62
2022/06/27 00:03:13;;;;;;;4.50;2.10;;;;;;;23.31;52.77;101468.22;5034206;28;20036;-62
2022/06/27 00:05:39;;;;;;;4.70;2.30;;;;;;;23.30;52.87;101463.88;5033984;28;20025;-62
2022/06/27 00:08:04;;;;;;;4.65;2.20;;;;;;;23.30;52.76;101465.69;5034063;28;20487;-62
2022/06/27 00:10:30;;;;;;;4.18;1.90;;;;;;;23.30;52.69;101463.03;5034533;28;20028;-62
2022/06/27 00:12:55;;;;;;;4.95;2.28;;;;;;;23.30;52.81;101465.69;5033562;28;20033;-62
2022/06/27 00:15:21;;;;;;;4.32;2.15;;;;;;;23.30;52.72;101473.66;5034202;28;20037;-62
2022/06/27 00:17:46;;;;;;;4.13;2.03;;;;;;;23.29;52.71;101474.63;5034255;28;20037;-62
2022/06/27 00:20:12;;;;;;;4.37;1.90;;;;;;;23.27;53.23;101472.13;5033031;28;20018;-62
2022/06/27 00:22:38;;;;;;;4.47;2.35;;;;;;;23.27;52.87;101476.63;5034323;28;20358;-63
2022/06/27 00:25:04;;;;;;;4.78;2.72;;;;;;;23.28;53.15;101480.97;5033966;28;20452;-62
2022/06/27 00:27:29;;;;;;;4.55;2.30;;;;;;;23.27;53.16;101490.75;5033435;28;20041;-62
2022/06/27 00:29:55;;;;;;;4.50;2.20;;;;;;;23.27;52.83;101492.56;5034157;28;20021;-62
2022/06/27 00:32:21;;;;;;;4.90;2.20;;;;;;;23.25;53.09;101489.22;5033879;28;20021;-62
2022/06/27 00:34:47;;;;;;;3.88;2.08;;;;;;;23.25;52.77;101495.38;5033219;28;20120;-62
2022/06/27 00:37:12;;;;;;;4.75;2.20;;;;;;;23.24;53.18;101491.06;5033459;28;20108;-62
2022/06/27 00:39:37;;;;;;;4.80;2.17;;;;;;;23.24;53.16;101491.06;5033997;28;20034;-62
2022/06/27 00:42:03;;;;;;;5.05;2.13;;;;;;;23.23;53.19;101492.03;5032854;28;20045;-62
2022/06/27 00:44:40;;;;;;;4.07;2.28;;;;;;;23.24;53.30;101498.16;5033978;28;20045;-62
2022/06/27 00:47:08;;;;;;;4.22;2.20;;;;;;;23.23;52.96;101499.19;5033526;28;20029;-62
2022/06/27 00:49:34;;;;;;;4.22;2.35;;;;;;;23.24;52.88;101506.16;5033182;28;20037;-62
2022/06/27 00:52:00;;;;;;;4.30;2.20;;;;;;;23.22;52.85;101494.81;5032805;28;20057;-62
2022/06/27 00:54:26;;;;;;;4.47;2.30;;;;;;;23.23;53.27;101507.16;5033802;28;20026;-62
2022/06/27 00:56:52;;;;;;;4.30;2.05;;;;;;;23.22;53.00;101502.81;5032937;28;20029;-63
2022/06/27 00:59:18;;;;;;;3.53;2.05;;;;;;;23.22;53.12;101508.13;5033251;28;20025;-62
2022/06/27 01:01:43;;;;;;;4.47;2.10;;;;;;;23.21;52.97;101498.44;5033023;28;20021;-62
2022/06/27 01:04:08;;;;;;;4.43;2.35;;;;;;;23.20;53.24;101505.59;5033272;28;20089;-62
2022/06/27 01:06:34;;;;;;;5.13;2.40;;;;;;;23.20;52.93;101499.47;5033475;28;20101;-62
2022/06/27 01:08:59;;;;;;;4.30;2.30;;;;;;;23.20;52.85;101497.63;5032344;28;20271;-61
2022/06/27 01:11:25;;;;;;;3.95;2.20;;;;;;;23.20;52.81;101507.44;5033210;28;20025;-62
2022/06/27 01:13:50;;;;;;;4.47;2.22;;;;;;;23.19;53.05;101509.22;5033152;28;20029;-62
2022/06/27 01:16:16;;;;;;;4.25;2.25;;;;;;;23.18;53.00;101508.41;5032243;28;20067;-62
2022/06/27 01:18:42;;;;;;;4.00;2.22;;;;;;;23.17;53.03;101509.38;5033382;28;20181;-62
2022/06/27 01:21:13;;;;;;;5.32;2.72;;;;;;;23.18;53.15;101510.22;5032832;28;20465;-62
2022/06/27 01:23:38;;;;;;;4.13;2.10;;;;;;;23.17;53.19;101512.03;5032463;28;20022;-62
2022/06/27 01:26:04;;;;;;;4.53;2.38;;;;;;;23.16;52.74;101509.50;5032906;28;20431;-62
2022/06/27 01:28:29;;;;;;;5.32;3.30;;;;;;;23.16;52.92;101510.38;5033000;28;20049;-62
2022/06/27 01:30:55;;;;;;;4.07;2.20;;;;;;;23.17;53.19;101504.06;5032456;28;20025;-62
2022/06/27 01:33:20;;;;;;;4.18;2.10;;;;;;;23.16;52.89;101499.75;5032779;28;20362;-62
2022/06/27 01:35:46;;;;;;;4.65;2.42;;;;;;;23.16;53.08;101497.06;5032591;28;20053;-62
2022/06/27 01:38:11;;;;;;;4.47;2.40;;;;;;;23.16;53.22;101493.56;5031931;28;20022;-62
2022/06/27 01:40:37;;;;;;;3.92;2.05;;;;;;;23.16;53.34;101478.47;5032803;28;20026;-62
2022/06/27 01:43:04;;;;;;;3.97;2.03;;;;;;;23.16;52.97;101472.28;5032377;28;20030;-62
2022/06/27 01:45:30;;;;;;;3.92;2.22;;;;;;;23.15;53.15;101465.31;5032358;28;20056;-62
2022/06/27 01:47:56;;;;;;;4.78;2.25;;;;;;;23.15;52.98;101466.16;5032936;28;20052;-62
2022/06/27 01:50:24;;;;;;;4.10;2.17;;;;;;;23.14;52.86;101472.44;5032989;28;20032;-62
2022/06/27 01:52:51;;;;;;;4.40;2.60;;;;;;;23.13;52.82;101465.47;5032221;28;20033;-62
2022/06/27 01:55:18;;;;;;;4.53;2.30;;;;;;;23.12;52.74;101461.13;5032241;28;20025;-61
2022/06/27 01:57:46;;;;;;;4.50;2.15;;;;;;;23.14;52.96;101468.94;5032644;28;20026;-62
2022/06/27 02:00:14;;;;;;;4.30;2.28;;;;;;;23.13;53.28;101459.28;5031635;28;20392;-62
2022/06/27 02:02:40;;;;;;;5.13;2.47;;;;;;;23.11;52.97;101463.91;5032826;28;20408;-62
2022/06/27 02:05:06;;;;;;;5.15;2.08;;;;;;;23.13;53.22;101456.63;5035250;28;20075;-62
2022/06/27 02:07:31;;;;;;;3.90;2.10;;;;;;;23.13;53.30;101465.47;5036798;28;20041;-62
2022/06/27 02:09:57;;;;;;;3.88;2.13;;;;;;;23.13;53.00;101453.97;5036493;28;20021;-62
2022/06/27 02:12:23;;;;;;;4.63;2.20;;;;;;;23.11;53.10;101456.75;5035949;28;20021;-62
2022/06/27 02:14:51;;;;;;;4.30;2.20;;;;;;;23.12;53.32;101450.47;5036839;28;20022;-63
2022/06/27 02:17:17;;;;;;;4.18;2.58;;;;;;;23.12;52.96;101450.47;5036387;28;20026;-62
2022/06/27 02:19:44;;;;;;;4.70;2.55;;;;;;;23.11;53.13;101450.63;5035799;28;20018;-62
2022/06/27 02:22:11;;;;;;;3.67;1.90;;;;;;;23.11;53.06;101442.66;5036140;28;20472;-62
2022/06/27 02:24:37;;;;;;;4.88;2.13;;;;;;;23.10;52.94;101441.81;5036392;28;20401;-62
2022/06/27 02:27:03;;;;;;;4.55;2.13;;;;;;;23.10;53.20;101433.00;5035428;28;20033;-62
2022/06/27 02:29:28;;;;;;;4.63;2.40;;;;;;;23.09;52.90;101431.31;5036591;28;20100;-62
2022/06/27 02:31:54;;;;;;;4.65;2.20;;;;;;;23.09;53.25;101431.31;5036287;28;20502;-62
2022/06/27 02:34:20;;;;;;;5.22;2.20;;;;;;;23.09;53.19;101441.97;5035181;28;20076;-62
2022/06/27 02:36:49;;;;;;;4.20;2.40;;;;;;;23.09;53.18;101445.44;5036276;28;20036;-62
2022/06/27 02:39:23;;;;;;;5.20;2.20;;;;;;;23.07;53.16;101442.06;5035796;28;20104;-62
2022/06/27 02:41:51;;;;;;;4.88;2.17;;;;;;;23.09;53.08;101442.78;5035678;28;20022;-62
2022/06/27 02:44:18;;;;;;;4.10;2.42;;;;;;;23.08;53.00;101435.81;5035868;28;20025;-62
2022/06/27 02:46:45;;;;;;;4.25;2.40;;;;;;;23.08;53.33;101425.19;5036215;28;20073;-62
2022/06/27 02:49:10;;;;;;;4.03;2.45;;;;;;;23.08;53.21;101422.53;5035038;28;20021;-62
2022/06/27 02:52:06;;;;;;;4.65;2.40;;;;;;;23.08;52.93;101419.00;5035848;28;20025;-62
2022/06/27 02:54:48;;;;;;;4.32;2.55;;;;;;;23.07;53.06;101404.84;5035039;28;20487;-62
2022/06/27 02:57:48;;;;;;;4.25;2.45;;;;;;;23.07;53.01;101404.03;5035500;28;20041;-62
2022/06/27 03:00:14;;;;;;;5.07;2.38;;;;;;;23.06;53.37;101402.34;5030383;28;20044;-62
2022/06/27 03:02:44;;;;;;;4.50;2.60;;;;;;;23.02;52.90;101393.81;5035084;28;20034;-62
2022/06/27 03:05:10;;;;;;;4.75;2.35;;;;;;;23.05;53.16;101393.53;5035578;28;20049;-62
2022/06/27 03:07:43;;;;;;;4.38;2.30;;;;;;;23.04;52.93;101397.16;5035811;28;20122;-62
2022/06/27 03:10:10;;;;;;;6.72;2.35;;;;;;;23.04;53.12;101396.34;5034628;28;20075;-62
2022/06/27 03:12:35;;;;;;;5.95;2.30;;;;;;;23.03;52.96;101384.84;5035433;28;20029;-62
2022/06/27 03:15:01;;;;;;;3.85;2.22;;;;;;;23.04;52.80;101385.72;5034384;28;20373;-62
2022/06/27 03:17:26;;;;;;;4.32;2.20;;;;;;;23.03;53.11;101394.66;5034753;28;20029;-62
2022/06/27 03:19:52;;;;;;;4.10;2.13;;;;;;;23.01;53.02;101394.78;5035547;28;20108;-62
2022/06/27 03:22:18;;;;;;;4.47;2.20;;;;;;;23.01;52.75;101400.09;5035092;28;20068;-62
2022/06/27 03:24:43;;;;;;;4.63;2.25;;;;;;;23.01;52.80;101402.75;5034599;28;20465;-62
2022/06/27 03:27:10;;;;;;;4.45;3.13;;;;;;;23.01;53.12;101397.44;5034921;28;20034;-62
2022/06/27 03:29:36;;;;;;;4.88;2.75;;;;;;;22.98;52.73;101395.91;5034735;28;20024;-62
2022/06/27 03:32:01;;;;;;;3.65;2.22;;;;;;;22.99;53.19;101394.09;5034996;28;20025;-62
2022/06/27 03:34:26;;;;;;;4.60;2.30;;;;;;;22.99;53.05;101391.44;5035060;28;20092;-62
2022/06/27 03:36:51;;;;;;;4.77;2.70;;;;;;;22.98;53.08;101392.41;5034507;28;20491;-62
2022/06/27 03:39:17;;;;;;;4.50;2.50;;;;;;;22.98;52.97;101395.91;5034816;28;20290;-62
2022/06/27 03:41:43;;;;;;;5.53;2.65;;;;;;;22.98;52.89;101393.25;5034971;28;20281;-62
2022/06/27 03:44:08;;;;;;;4.72;2.53;;;;;;;22.97;52.76;101386.28;5034161;28;20392;-62
2022/06/27 03:46:35;;;;;;;4.35;2.40;;;;;;;22.96;52.98;101387.25;5034998;28;20021;-64
2022/06/27 03:51:44;;;;;;;4.15;2.42;;;;;;;22.95;53.09;101392.69;5034459;28;20036;-62
2022/06/27 03:54:09;;;;;;;4.90;2.60;;;;;;;22.94;52.99;101399.84;5034493;28;20025;-62
2022/06/27 03:56:34;;;;;;;4.43;2.47;;;;;;;22.93;52.33;101398.16;5034716;28;20397;-62
2022/06/27 03:59:00;;;;;;;4.03;2.10;;;;;;;22.94;53.06;101401.66;5033483;28;20271;-62
2022/06/27 04:01:25;;;;;;;4.60;2.53;;;;;;;22.96;52.92;101420.97;5034632;28;20014;-62
2022/06/27 04:03:51;;;;;;;5.97;3.20;;;;;;;22.93;53.17;101421.25;5034565;28;20029;-63
2022/06/27 04:06:16;;;;;;;5.07;2.45;;;;;;;22.93;52.70;101413.28;5033581;28;20116;-62
2022/06/27 04:08:43;;;;;;;4.55;2.50;;;;;;;22.93;52.87;101405.31;5034436;28;20028;-62
2022/06/27 04:11:08;;;;;;;4.95;2.50;;;;;;;22.93;52.74;101410.63;5034222;28;20029;-62
2022/06/27 04:13:33;;;;;;;4.15;2.53;;;;;;;22.91;53.08;101402.78;5033843;28;20366;-63
2022/06/27 04:15:58;;;;;;;4.43;2.63;;;;;;;22.93;53.23;101415.94;5034394;28;20021;-62
2022/06/27 04:18:24;;;;;;;4.13;2.47;;;;;;;22.93;53.24;101402.66;5034232;28;20473;-62
2022/06/27 04:20:49;;;;;;;4.50;2.35;;;;;;;22.92;53.17;101393.00;5033591;28;20025;-62
2022/06/27 04:23:14;;;;;;;3.92;2.25;;;;;;;22.93;53.22;101384.88;5033884;28;20025;-62
2022/06/27 04:25:42;;;;;;;4.53;2.78;;;;;;;22.93;53.10;101378.72;5033518;28;20105;-62
2022/06/27 04:28:07;;;;;;;4.07;2.42;;;;;;;22.93;53.29;101381.38;5033686;28;20041;-62
2022/06/27 04:30:33;;;;;;;4.63;2.60;;;;;;;22.94;53.12;101377.72;5033940;28;20076;-62
2022/06/27 04:32:58;;;;;;;4.32;2.70;;;;;;;22.94;53.39;101369.75;5032969;28;20025;-62
2022/06/27 04:35:25;;;;;;;5.07;2.30;;;;;;;22.94;53.52;101357.31;5033651;28;20044;-62
2022/06/27 04:37:50;;;;;;;5.65;2.53;;;;;;;22.92;53.56;101337.19;5034080;28;20032;-62
2022/06/27 04:40:19;;;;;;;3.80;2.13;;;;;;;22.93;53.49;101326.41;5032781;28;20849;-62
2022/06/27 04:42:44;;;;;;;4.18;2.55;;;;;;;22.94;53.82;101344.03;5033900;28;20106;-62
2022/06/27 04:45:13;;;;;;;4.70;2.40;;;;;;;22.93;53.60;101350.31;5033375;28;20065;-62
2022/06/27 04:47:41;;;;;;;4.50;2.60;;;;;;;22.93;53.51;101341.53;5033041;28;20389;-62
2022/06/27 04:50:09;;;;;;;4.75;2.40;;;;;;;22.94;53.21;101344.03;5033471;28;20030;-62
2022/06/27 04:52:37;;;;;;;4.00;2.47;;;;;;;22.93;53.53;101354.81;5033631;28;20029;-62
2022/06/27 04:55:07;;;;;;;4.90;2.83;;;;;;;22.92;53.38;101353.13;5032699;28;20056;-63
2022/06/27 04:57:32;;;;;;;4.53;2.72;;;;;;;22.93;53.39;101363.63;5033636;28;20037;-62
2022/06/27 04:59:58;;;;;;;4.75;2.70;;;;;;;22.94;53.55;101364.44;5033163;28;20487;-62
2022/06/27 05:02:23;;;;;;;3.75;2.30;;;;;;;22.94;53.69;101364.44;5032750;28;20519;-62
2022/06/27 05:04:49;;;;;;;3.80;2.20;;;;;;;22.94;54.03;101351.16;5033499;28;20028;-62
2022/06/27 05:07:14;;;;;;;5.20;2.58;;;;;;;22.93;53.92;101346.84;5032963;28;20032;-62
2022/06/27 05:09:39;;;;;;;5.37;3.10;;;;;;;22.94;53.79;101345.84;5032872;28;20022;-62
2022/06/27 05:12:05;;;;;;;4.15;2.60;;;;;;;22.94;53.65;101324.56;5033113;28;20297;-63
2022/06/27 05:14:30;;;;;;;4.80;2.72;;;;;;;22.93;53.60;101329.06;5033219;28;20030;-62
2022/06/27 05:16:55;;;;;;;4.80;2.80;;;;;;;22.94;53.63;101327.22;5032319;28;20030;-62
2022/06/27 05:19:21;;;;;;;5.03;2.90;;;;;;;22.93;53.51;101339.69;5034168;28;20059;-62
2022/06/27 05:21:46;;;;;;;4.10;2.73;;;;;;;22.93;53.76;101352.16;5033389;28;20270;-62
2022/06/27 05:24:11;;;;;;;5.17;2.63;;;;;;;22.93;53.66;101358.28;5032250;28;20366;-62
2022/06/27 05:26:37;;;;;;;5.68;2.95;;;;;;;22.93;53.75;101358.28;5033203;28;20278;-62
2022/06/27 05:29:02;;;;;;;4.53;2.83;;;;;;;22.93;54.03;101352.16;5032171;28;20037;-62
2022/06/27 05:31:28;;;;;;;4.93;3.00;;;;;;;22.93;53.78;101360.13;5033124;28;20480;-62
2022/06/27 05:33:53;;;;;;;5.20;2.90;;;;;;;22.92;53.86;101369.94;5032842;28;20088;-62
2022/06/27 05:36:21;;;;;;;4.90;3.37;;;;;;;22.92;53.60;101403.63;5031781;28;20432;-62
2022/06/27 05:38:47;;;;;;;6.93;3.28;;;;;;;22.92;53.83;101417.78;5032452;28;20281;-62
2022/06/27 05:41:12;;;;;;;4.88;3.13;;;;;;;22.92;54.04;101439.03;5032770;28;20100;-62
2022/06/27 05:43:39;;;;;;;5.03;3.00;;;;;;;22.92;53.82;101447.00;5032291;28;20024;-62
2022/06/27 05:46:04;;;;;;;4.72;2.83;;;;;;;22.92;53.80;101446.13;5032431;28;20036;-62
2022/06/27 05:48:30;;;;;;;4.95;3.00;;;;;;;22.92;53.78;101460.28;5032879;28;20026;-62
2022/06/27 05:50:56;;;;;;;5.75;3.40;;;;;;;22.92;53.76;101472.72;5031709;28;20022;-62
2022/06/27 05:53:23;;;;;;;5.45;3.42;;;;;;;22.93;54.00;101475.25;5033005;28;20033;-62
2022/06/27 05:55:48;;;;;;;5.32;3.30;;;;;;;22.92;54.18;101483.34;5032935;28;20025;-62
2022/06/27 05:58:14;;;;;;;5.90;2.95;;;;;;;22.92;53.97;101480.69;5031901;28;20028;-62
2022/06/27 06:00:39;;;;;;;4.40;2.70;;;;;;;22.91;54.14;101476.38;5032799;28;20029;-62
2022/06/27 06:03:05;;;;;;;5.78;2.67;;;;;;;22.92;54.17;101470.06;5032307;28;20109;-62
2022/06/27 06:05:31;;;;;;;5.35;3.13;;;;;;;22.91;54.23;101458.59;5031715;28;20028;-62
2022/06/27 06:08:04;;;;;;;6.32;3.30;;;;;;;22.91;54.19;101447.16;5032416;28;20025;-62
2022/06/27 06:10:31;;;;;;;5.13;3.25;;;;;;;22.91;54.19;101441.81;5032726;28;20036;-62
2022/06/27 06:12:56;;;;;;;5.18;3.20;;;;;;;22.90;54.23;101443.63;5031424;28;20029;-62
2022/06/27 06:15:22;;;;;;;4.72;2.70;;;;;;;22.92;54.33;101454.97;5032440;28;20105;-62
2022/06/27 06:17:47;;;;;;;5.75;3.17;;;;;;;22.91;54.27;101461.25;5032367;28;20087;-62
2022/06/27 06:20:14;;;;;;;4.60;3.22;;;;;;;22.91;54.23;101450.63;5031269;28;20469;-62
2022/06/27 06:22:40;;;;;;;5.10;3.00;;;;;;;22.91;54.04;101471.88;5032551;28;20045;-63
2022/06/27 06:25:07;;;;;;;7.43;3.72;;;;;;;22.89;54.45;101489.81;5032309;28;20030;-62
2022/06/27 06:27:34;;;;;;;5.03;2.67;;;;;;;22.90;54.64;101498.59;5031557;28;20041;-62
2022/06/27 06:30:02;;;;;;;4.72;2.67;;;;;;;22.88;54.42;101481.97;5032006;28;20057;-62
2022/06/27 06:32:28;;;;;;;5.50;2.50;;;;;;;22.92;54.32;101496.63;5031478;28;20021;-62
2022/06/27 06:34:53;;;;;;;4.63;2.85;;;;;;;22.93;54.59;101493.84;5032202;28;20048;-62
2022/06/27 06:37:19;;;;;;;5.75;3.08;;;;;;;22.95;54.89;101491.03;5032134;28;20381;-61
2022/06/27 06:39:44;;;;;;;6.63;2.92;;;;;;;22.97;54.94;101476.66;5031684;28;20026;-62
2022/06/27 06:42:10;;;;;;;6.13;2.90;;;;;;;22.96;54.63;101455.53;5032012;28;20075;-63
2022/06/27 06:44:35;;;;;;;5.63;2.60;;;;;;;22.98;54.67;101433.13;5032331;28;20017;-63
2022/06/27 06:47:01;;;;;;;5.20;2.80;;;;;;;23.00;55.05;101427.66;5031167;28;20021;-62
2022/06/27 06:49:26;;;;;;;5.28;2.67;;;;;;;23.00;55.13;101409.91;5032754;28;20108;-62
2022/06/27 06:51:52;;;;;;;6.35;2.90;;;;;;;23.02;54.75;101423.06;5035884;28;20180;-63
2022/06/27 06:54:20;;;;;;;4.40;2.85;;;;;;;23.05;54.70;101421.91;5034600;28;20025;-62
2022/06/27 06:56:49;;;;;;;5.45;2.63;;;;;;;23.05;54.71;101406.81;5035916;28;20083;-62
2022/06/27 06:59:15;;;;;;;6.38;2.67;;;;;;;23.07;55.36;101404.03;4993233;28;20041;-62
2022/06/27 07:01:41;;;;;;;5.70;2.92;;;;;;;23.08;55.28;101421.66;5042390;28;20386;-63
2022/06/27 07:04:07;;;;;;;4.90;2.72;;;;;;;23.07;54.81;101428.78;5035634;28;20026;-62
2022/06/27 07:06:33;;;;;;;4.65;2.42;;;;;;;23.11;55.04;101430.19;5035865;28;20487;-64
2022/06/27 07:09:00;;;;;;;7.03;2.83;;;;;;;23.12;55.01;101418.56;5034824;28;20057;-62
2022/06/27 07:11:31;;;;;;;8.50;2.67;;;;;;;23.13;54.78;101406.13;5035838;28;20048;-62
2022/06/27 07:13:58;;;;;;;5.80;3.10;;;;;;;23.12;55.11;101405.28;5035376;28;20025;-61
2022/06/27 07:16:25;;;;;;;5.63;2.78;;;;;;;23.11;55.37;101418.72;5035070;28;20091;-61
2022/06/27 07:18:54;;;;;;;5.25;2.80;;;;;;;23.13;55.31;101438.00;5035705;28;20033;-63
2022/06/27 07:21:20;;;;;;;5.25;3.25;;;;;;;23.16;55.33;101427.97;5035702;28;20033;-62
2022/06/27 07:23:49;;;;;;;5.35;3.25;;;;;;;23.22;54.87;101442.47;5034705;28;20021;-64
2022/06/27 07:26:17;;;;;;;5.32;2.88;;;;;;;23.29;55.17;101456.03;5035105;28;20026;-62
2022/06/27 07:28:43;;;;;;;5.15;2.80;;;;;;;23.35;54.98;101464.28;5034510;28;20029;-60
2022/06/27 07:31:11;;;;;;;4.72;2.70;;;;;;;23.40;54.89;101460.34;5034858;28;20083;-65
2022/06/27 07:33:36;;;;;;;5.07;2.92;;;;;;;23.40;54.25;101441.72;5035375;28;20022;-65
2022/06/27 07:36:03;;;;;;;5.15;2.90;;;;;;;23.46;54.46;101454.44;5034089;28;20041;-64
2022/06/27 07:38:32;;;;;;;4.35;2.65;;;;;;;23.47;54.59;101451.63;5035243;28;20427;-65
2022/06/27 07:40:57;;;;;;;5.20;2.80;;;;;;;23.49;54.61;101452.31;5034911;28;20032;-64
2022/06/27 07:43:23;;;;;;;5.47;3.13;;;;;;;23.50;54.47;101466.47;5034623;28;20108;-62
2022/06/27 07:45:48;;;;;;;5.83;2.50;;;;;;;23.52;54.03;101460.03;5035229;28;20057;-65
2022/06/27 07:48:16;;;;;;;5.65;3.00;;;;;;;23.50;53.64;101459.34;5034805;28;20279;-63
2022/06/27 07:50:41;;;;;;;4.85;2.35;;;;;;;23.47;54.24;101475.59;5034215;28;20083;-63
2022/06/27 07:53:13;;;;;;;6.28;2.60;;;;;;;23.46;54.47;101481.88;5034647;28;20093;-63
2022/06/27 07:55:40;;;;;;;4.82;2.50;;;;;;;23.44;54.30;101480.34;5034673;28;20092;-63
2022/06/27 07:58:07;;;;;;;6.00;2.50;;;;;;;23.43;54.41;101482.19;5034715;28;20037;-66
2022/06/27 08:00:33;;;;;;;4.10;2.30;;;;;;;23.45;54.06;101490.84;5034999;28;20018;-66
2022/06/27 08:02:58;;;;;;;7.97;2.22;;;;;;;23.50;54.04;101498.41;5034021;28;20024;-67
2022/06/27 08:05:24;;;;;;;4.97;2.60;;;;;;;23.53;53.75;101496.28;5034107;28;20033;-66
2022/06/27 08:07:49;;;;;;;4.88;2.15;;;;;;;23.57;53.79;101488.84;5034683;28;20591;-66
2022/06/27 08:10:15;;;;;;;4.75;2.33;;;;;;;23.61;53.92;101489.41;5034231;28;20499;-68
2022/06/27 08:12:40;;;;;;;5.18;2.40;;;;;;;23.68;53.67;101503.81;5033666;28;20025;-68
2022/06/27 08:15:06;;;;;;;6.20;2.43;;;;;;;23.72;53.27;101499.88;5034332;28;20068;-65
2022/06/27 08:17:32;;;;;;;8.38;2.38;;;;;;;23.73;53.69;101483.75;5034492;28;20356;-65
2022/06/27 08:19:59;;;;;;;5.15;2.20;;;;;;;23.73;53.37;101485.56;5033673;28;20488;-73
2022/06/27 08:22:25;;;;;;;5.72;2.58;;;;;;;23.73;53.72;101488.22;5034434;28;20079;-65
2022/06/27 08:24:51;;;;;;;4.00;2.13;;;;;;;23.76;53.48;101492.44;5033640;28;20017;-64
2022/06/27 08:27:17;;;;;;;4.82;2.53;;;;;;;23.79;53.37;101503.63;5033818;28;20550;-63
2022/06/27 08:29:43;;;;;;;3.90;2.00;;;;;;;23.81;53.24;101512.28;5034376;28;20033;-64
2022/06/27 08:32:09;;;;;;;3.50;2.10;;;;;;;23.84;53.31;101513.84;5033304;28;20715;-65
2022/06/27 08:34:35;;;;;;;4.05;1.98;;;;;;;23.86;53.22;101517.19;5033917;28;20041;-66
2022/06/27 08:37:01;;;;;;;3.85;1.90;;;;;;;23.87;52.97;101522.38;5033744;28;20033;-66
2022/06/27 08:39:28;;;;;;;4.70;2.20;;;;;;;23.90;53.25;101524.75;5033179;28;20533;-67
2022/06/27 08:41:53;;;;;;;5.18;2.40;;;;;;;23.90;53.01;101513.28;5033804;28;20033;-64
2022/06/27 08:44:21;;;;;;;4.20;2.20;;;;;;;23.91;53.01;101517.63;5033619;28;20492;-66
2022/06/27 08:46:47;;;;;;;5.45;2.38;;;;;;;23.92;52.71;101519.28;5033237;28;20095;-66
2022/06/27 08:49:14;;;;;;;4.72;2.40;;;;;;;23.92;53.03;101518.44;5033482;28;20044;-70
2022/06/27 08:51:41;;;;;;;5.32;2.05;;;;;;;23.92;53.38;101521.94;5033707;28;20017;-68
2022/06/27 08:54:06;;;;;;;6.03;2.30;;;;;;;23.93;53.19;101515.66;5032670;28;20029;-66
2022/06/27 08:56:32;;;;;;;4.93;2.50;;;;;;;23.94;53.02;101521.78;5033526;28;20041;-68
2022/06/27 08:59:00;;;;;;;4.43;2.38;;;;;;;23.93;53.18;101520.13;5033148;28;20446;-67
2022/06/27 09:01:27;;;;;;;4.93;2.55;;;;;;;23.90;52.97;101532.72;5032916;28;20480;-68
2022/06/27 09:04:06;;;;;;;3.67;2.10;;;;;;;23.89;53.39;101540.88;5033588;28;20532;-68
2022/06/27 09:06:43;;;;;;;4.03;2.38;;;;;;;23.87;53.55;101553.50;5033543;28;20499;-65
2022/06/27 09:09:09;;;;;;;4.00;2.25;;;;;;;23.85;53.54;101542.16;5032340;28;20540;-68
2022/06/27 09:11:37;;;;;;;3.97;2.20;;;;;;;23.85;53.47;101545.66;5033493;28;20060;-69
2022/06/27 09:14:05;;;;;;;4.68;2.20;;;;;;;23.84;53.49;101535.97;5031560;28;20021;-67
2022/06/27 09:16:31;;;;;;;6.65;2.60;;;;;;;23.83;53.11;101530.75;5033289;28;20036;-70
2022/06/27 09:18:56;;;;;;;6.78;2.50;;;;;;;23.84;53.39;101524.50;5033059;28;20030;-66
2022/06/27 09:21:22;;;;;;;5.20;2.40;;;;;;;23.84;53.32;101517.34;5032390;28;20390;-67
2022/06/27 09:23:58;;;;;;;4.70;2.50;;;;;;;23.84;53.29;101528.00;5033463;28;20112;-67
2022/06/27 09:26:27;;;;;;;6.03;2.45;;;;;;;23.85;52.97;101531.50;5033275;28;20057;-66
2022/06/27 09:28:59;;;;;;;4.78;2.47;;;;;;;23.83;53.21;101536.09;5032449;28;20029;-66
2022/06/27 09:31:25;;;;;;;4.90;2.10;;;;;;;23.82;53.51;101531.78;5032942;28;20401;-68
2022/06/27 09:34:13;;;;;;;5.38;2.08;;;;;;;23.81;53.51;101538.06;5033102;28;20080;-70
2022/06/27 09:36:45;;;;;;;3.80;2.20;;;;;;;23.84;53.13;101540.47;5032237;28;20465;-67
2022/06/27 09:39:29;;;;;;;4.13;2.40;;;;;;;23.84;53.37;101528.00;5032780;28;20052;-70
2022/06/27 09:41:59;;;;;;;5.25;2.20;;;;;;;23.85;53.47;101529.69;5033047;28;20031;-71
2022/06/27 09:44:27;;;;;;;4.28;2.35;;;;;;;23.85;53.05;101523.53;5032043;28;20490;-69
2022/06/27 09:47:05;;;;;;;5.15;2.05;;;;;;;23.86;53.28;101533.16;5032992;28;20447;-71
2022/06/27 09:49:36;;;;;;;4.20;2.28;;;;;;;23.86;53.34;101530.50;5032280;28;20140;-69
2022/06/27 09:52:05;;;;;;;5.20;2.40;;;;;;;23.86;53.09;101528.72;5032612;28;20064;-70
2022/06/27 09:54:33;;;;;;;5.85;2.10;;;;;;;23.87;53.01;101530.38;5032775;28;20021;-68
2022/06/27 09:57:00;;;;;;;5.20;2.20;;;;;;;23.85;53.42;101527.03;5031482;28;20091;-68
2022/06/27 09:59:26;;;;;;;4.63;2.05;;;;;;;23.86;53.16;101526.03;5032870;28;20096;-67
2022/06/27 10:01:55;;;;;;;3.45;1.70;;;;;;;23.85;53.27;101524.34;5032646;28;20021;-69
2022/06/27 10:04:24;;;;;;;3.80;1.85;;;;;;;23.85;53.37;101516.38;5031791;28;20480;-67
2022/06/27 10:06:51;;;;;;;4.13;1.90;;;;;;;23.87;53.66;101516.22;5032735;28;20500;-69
2022/06/27 10:09:20;;;;;;;3.55;2.03;;;;;;;23.87;53.41;101511.72;5032219;28;20545;-68
2022/06/27 10:11:48;;;;;;;4.22;2.00;;;;;;;23.86;53.40;101506.56;5032086;28;20076;-68
2022/06/27 10:14:23;;;;;;;5.15;2.17;;;;;;;23.88;53.44;101508.09;5032182;28;20468;-68
2022/06/27 10:16:59;;;;;;;3.80;1.60;;;;;;;23.89;53.47;101507.13;5032516;28;20460;-68
2022/06/27 10:19:29;;;;;;;5.00;1.95;;;;;;;23.90;52.94;101505.28;5031696;28;20021;-67
2022/06/27 10:21:56;;;;;;;5.28;2.10;;;;;;;23.90;53.40;101508.78;5032495;28;20108;-67
2022/06/27 10:24:21;;;;;;;5.25;2.25;;;;;;;23.92;53.30;101505.97;5032864;28;20029;-68
2022/06/27 10:26:49;;;;;;;5.13;2.10;;;;;;;23.92;53.26;101499.81;5036259;28;20350;-68
2022/06/27 10:29:29;;;;;;;3.80;1.80;;;;;;;23.93;52.89;101502.34;5036312;28;20060;-67
2022/06/27 10:31:58;;;;;;;4.13;1.90;;;;;;;23.93;52.89;101510.31;5035686;28;20061;-67
2022/06/27 10:34:44;;;;;;;6.63;1.73;;;;;;;23.94;53.28;101513.81;5036183;28;20120;-68
2022/06/27 10:37:33;;;;;;;4.07;1.90;;;;;;;23.93;52.85;101509.50;5036176;28;20042;-65
2022/06/27 10:40:21;;;;;;;3.85;1.90;;;;;;;23.94;53.18;101512.00;5035242;28;20025;-64
2022/06/27 10:42:53;;;;;;;3.75;1.70;;;;;;;23.93;53.06;101515.66;5036059;28;20028;-64
2022/06/27 10:45:21;;;;;;;3.70;1.90;;;;;;;23.95;52.83;101519.00;5036060;28;20029;-64
2022/06/27 10:47:48;;;;;;;3.60;1.80;;;;;;;23.95;53.05;101519.00;5035344;28;20030;-64
2022/06/27 10:50:16;;;;;;;3.47;1.88;;;;;;;23.96;52.91;101523.34;5035774;28;20029;-64
2022/06/27 10:52:41;;;;;;;5.10;1.90;;;;;;;23.96;53.13;101514.50;5035294;28;20044;-64
2022/06/27 10:55:25;;;;;;;4.88;1.92;;;;;;;23.95;52.97;101516.31;5035583;28;20113;-63
2022/06/27 10:57:53;;;;;;;4.30;1.95;;;;;;;23.97;53.13;101516.19;5036128;28;20055;-65
2022/06/27 11:00:41;;;;;;;3.60;1.80;;;;;;;23.97;53.32;101516.19;5034854;28;20029;-64
2022/06/27 11:03:09;;;;;;;5.47;2.05;;;;;;;23.94;52.91;101520.00;5035267;28;20116;-65
2022/06/27 11:05:52;;;;;;;4.00;1.70;;;;;;;23.96;53.09;101523.34;5035536;28;20487;-65
2022/06/27 11:08:20;;;;;;;4.47;1.80;;;;;;;23.96;52.67;101525.13;5034647;28;20495;-65
2022/06/27 11:10:45;;;;;;;4.45;1.60;;;;;;;23.93;52.95;101523.63;5035682;28;20028;-64
2022/06/27 11:13:31;;;;;;;4.75;1.95;;;;;;;23.93;53.13;101523.63;5035346;28;20025;-64
2022/06/27 11:15:56;;;;;;;4.15;2.13;;;;;;;23.92;53.09;101519.28;5034226;28;20048;-65
2022/06/27 11:18:21;;;;;;;5.53;2.00;;;;;;;23.90;53.65;101522.09;5035704;28;20018;-66
2022/06/27 11:20:47;;;;;;;5.30;2.08;;;;;;;23.90;53.11;101521.25;5034820;28;20754;-66
2022/06/27 11:23:12;;;;;;;4.13;2.00;;;;;;;23.92;53.46;101539.75;5035309;28;20032;-66
2022/06/27 11:25:41;;;;;;;5.10;2.60;;;;;;;23.90;53.30;101535.41;5035574;28;20373;-67
2022/06/27 11:33:37;;;;;;;5.28;1.88;;;;;;;23.90;53.32;101534.56;5038923;28;20475;-66